Time;durP1;ratioP1;P1;durP2;ratioP2;P2;SDS_P1;SDS_P2;PMS_P1;PMS_P2;Temp;Humidity;BMP_temperature;BMP_pressure;BME280_temperature;BME280_humidity;BME280_pressure;Samples;Min_cycle;Max_cycle;Signal;HPM_P1;HPM_P2
2023/01/24 00:01:21;;;;;;;33.40;30.30;;;;;;;1.85;100.00;99596.16;108997;1296;22238;-88
2023/01/24 00:03:49;;;;;;;32.80;29.90;;;;;;;1.87;100.00;99603.16;108965;1295;22257;-86
2023/01/24 00:06:17;;;;;;;34.90;31.60;;;;;;;1.92;100.00;99601.61;108983;1283;22277;-88
2023/01/24 00:08:45;;;;;;;32.20;29.30;;;;;;;1.99;100.00;99598.60;108931;1292;22234;-85
2023/01/24 00:11:13;;;;;;;33.20;30.20;;;;;;;2.04;100.00;99591.83;108876;1297;22262;-88
2023/01/24 00:13:41;;;;;;;34.40;31.40;;;;;;;2.12;100.00;99589.70;108857;1297;22133;-89
2023/01/24 00:16:14;;;;;;;32.40;29.40;;;;;;;2.30;100.00;99587.45;108889;1297;22280;-88
2023/01/24 00:18:43;;;;;;;33.50;30.30;;;;;;;2.46;100.00;99585.20;108704;1297;22308;-90
2023/01/24 00:21:17;;;;;;;35.10;31.80;;;;;;;2.46;100.00;99589.64;108913;1297;22206;-86
2023/01/24 00:23:47;;;;;;;35.00;31.70;;;;;;;2.48;100.00;99590.89;108875;1297;22315;-88
2023/01/24 00:26:16;;;;;;;35.30;32.00;;;;;;;2.42;100.00;99590.65;108891;1297;22976;-87
2023/01/24 00:28:46;;;;;;;36.00;32.30;;;;;;;2.34;100.00;99592.08;108888;1297;22781;-88
2023/01/24 00:31:15;;;;;;;33.90;30.70;;;;;;;2.28;100.00;99592.77;108881;1297;22256;-87
2023/01/24 00:33:43;;;;;;;32.50;29.60;;;;;;;2.25;100.00;99595.17;108854;1297;22268;-87
2023/01/24 00:36:11;;;;;;;34.60;31.50;;;;;;;2.23;100.00;99593.30;108685;1297;23116;-85
2023/01/24 00:38:39;;;;;;;35.90;32.70;;;;;;;2.18;100.00;99594.89;108886;1297;22233;-85
2023/01/24 00:41:07;;;;;;;38.60;35.10;;;;;;;2.12;100.00;99594.59;108882;1297;22231;-86
2023/01/24 00:43:35;;;;;;;34.20;31.10;;;;;;;2.08;100.00;99593.56;108880;1297;22149;-85
2023/01/24 00:46:08;;;;;;;35.40;32.10;;;;;;;2.02;100.00;99599.23;108861;1297;22276;-87
2023/01/24 00:48:37;;;;;;;32.50;29.60;;;;;;;1.99;100.00;99595.91;108878;1297;22242;-87
2023/01/24 00:51:05;;;;;;;32.10;29.00;;;;;;;1.99;100.00;99597.61;108858;1297;22219;-85
2023/01/24 00:53:33;;;;;;;32.30;29.30;;;;;;;2.01;100.00;99597.23;109113;1297;22429;-84
2023/01/24 00:56:02;;;;;;;35.70;32.40;;;;;;;2.01;100.00;99595.83;109320;1297;22287;-83
2023/01/24 00:58:32;;;;;;;33.80;30.80;;;;;;;1.99;100.00;99596.80;109314;1297;22152;-87
2023/01/24 01:01:03;;;;;;;33.10;30.30;;;;;;;1.96;100.00;99600.45;109159;1297;22400;-85
2023/01/24 01:03:32;;;;;;;30.00;27.40;;;;;;;1.96;100.00;99604.48;109087;1297;22362;-84
2023/01/24 01:06:04;;;;;;;29.30;26.60;;;;;;;1.98;100.00;99607.40;108942;1297;23123;-86
2023/01/24 01:08:33;;;;;;;31.60;28.80;;;;;;;2.01;100.00;99611.45;108800;1297;22295;-88
2023/01/24 01:11:51;;;;;;;34.10;30.90;;;;;;;2.03;100.00;99613.30;108995;1297;22179;-87
2023/01/24 01:14:19;;;;;;;32.70;29.70;;;;;;;2.00;100.00;99617.01;108848;1297;22644;-85
2023/01/24 01:16:46;;;;;;;30.10;27.30;;;;;;;1.98;100.00;99614.43;108877;1297;22302;-86
2023/01/24 01:19:14;;;;;;;28.50;25.80;;;;;;;1.97;100.00;99615.37;108871;1297;22331;-88
2023/01/24 01:21:44;;;;;;;28.20;25.50;;;;;;;2.00;100.00;99612.84;108577;1297;22170;-89
2023/01/24 01:24:12;;;;;;;30.00;27.20;;;;;;;2.01;100.00;99616.69;108914;1297;22230;-88
2023/01/24 01:26:40;;;;;;;28.90;26.20;;;;;;;2.03;100.00;99615.88;108847;1297;22178;-87
2023/01/24 01:29:08;;;;;;;30.90;28.20;;;;;;;2.02;100.00;99613.87;108852;1297;22290;-88
2023/01/24 01:31:36;;;;;;;33.20;30.40;;;;;;;2.01;100.00;99613.05;108893;1297;22233;-87
2023/01/24 01:34:04;;;;;;;29.40;26.60;;;;;;;1.98;100.00;99613.62;108859;1297;22338;-86
2023/01/24 01:36:32;;;;;;;30.50;27.70;;;;;;;1.96;100.00;99612.63;108869;1297;22175;-87
2023/01/24 01:39:00;;;;;;;29.30;26.50;;;;;;;1.97;100.00;99620.35;108908;1297;22151;-86
2023/01/24 01:41:28;;;;;;;28.30;25.70;;;;;;;1.98;100.00;99621.71;108873;1297;22149;-86
2023/01/24 01:46:47;;;;;;;30.90;28.10;;;;;;;1.98;100.00;99621.17;108887;1297;22147;-87
2023/01/24 01:49:26;;;;;;;29.40;26.80;;;;;;;1.96;100.00;99620.77;108596;1297;22777;-86
2023/01/24 01:52:13;;;;;;;27.60;25.10;;;;;;;1.95;100.00;99623.23;108883;1297;22856;-86
2023/01/24 01:54:46;;;;;;;29.10;26.60;;;;;;;1.96;100.00;99617.25;108841;1297;22214;-87
2023/01/24 01:57:19;;;;;;;31.40;28.70;;;;;;;1.99;100.00;99617.74;108855;1291;22680;-87
2023/01/24 01:59:56;;;;;;;27.60;25.10;;;;;;;1.99;100.00;99615.73;108827;1297;22691;-86
2023/01/24 02:02:24;;;;;;;26.30;24.00;;;;;;;1.96;100.00;99620.03;108835;1297;22291;-87
2023/01/24 02:04:57;;;;;;;27.20;24.60;;;;;;;1.95;100.00;99611.70;108823;1297;23075;-87
2023/01/24 02:07:36;;;;;;;29.40;26.80;;;;;;;1.98;100.00;99614.69;108562;1295;22302;-88
2023/01/24 02:10:05;;;;;;;30.50;27.70;;;;;;;2.00;100.00;99618.11;108731;1296;23396;-86
2023/01/24 02:12:41;;;;;;;29.60;26.80;;;;;;;2.01;100.00;99621.03;108857;1291;22118;-88
2023/01/24 02:18:03;;;;;;;24.40;22.20;;;;;;;1.93;100.00;99617.69;108952;1296;22106;-86
2023/01/24 02:20:39;;;;;;;26.00;23.50;;;;;;;1.93;100.00;99623.34;108855;1296;22934;-87
2023/01/24 02:23:16;;;;;;;26.80;24.50;;;;;;;1.96;100.00;99626.21;108947;1296;22358;-89
2023/01/24 02:26:08;;;;;;;24.90;22.70;;;;;;;1.97;100.00;99625.11;108848;1296;22876;-86
2023/01/24 02:28:42;;;;;;;28.80;26.10;;;;;;;1.94;100.00;99621.95;108852;1296;22264;-88
2023/01/24 02:31:10;;;;;;;28.70;26.10;;;;;;;1.93;100.00;99619.45;108950;1296;22359;-89
2023/01/24 02:33:38;;;;;;;24.80;22.60;;;;;;;1.91;100.00;99617.73;108690;1297;22820;-89
2023/01/24 02:36:15;;;;;;;25.30;22.90;;;;;;;1.90;100.00;99622.80;108839;1287;22281;-88
2023/01/24 02:38:47;;;;;;;26.60;24.10;;;;;;;1.92;100.00;99622.69;108829;1297;22179;-89
2023/01/24 02:41:19;;;;;;;26.10;23.70;;;;;;;1.91;100.00;99620.23;108803;1297;22320;-87
2023/01/24 02:43:49;;;;;;;27.50;25.10;;;;;;;1.89;100.00;99619.44;108666;1297;22267;-89
2023/01/24 02:46:17;;;;;;;32.50;29.60;;;;;;;1.90;100.00;99615.42;108568;1297;22267;-89
2023/01/24 02:48:50;;;;;;;25.00;22.60;;;;;;;1.89;100.00;99613.52;108821;1286;22248;-89
2023/01/24 02:54:04;;;;;;;25.70;23.40;;;;;;;1.89;100.00;99613.56;108878;1297;22778;-88
2023/01/24 02:59:19;;;;;;;25.10;22.90;;;;;;;1.85;100.00;99611.45;108854;1297;22234;-88
2023/01/24 03:01:47;;;;;;;23.10;21.00;;;;;;;1.87;100.00;99614.69;108841;1297;22226;-87
2023/01/24 03:04:15;;;;;;;23.60;21.50;;;;;;;1.91;100.00;99612.73;108824;1297;22884;-87
2023/01/24 03:06:43;;;;;;;24.20;22.10;;;;;;;1.91;100.00;99614.50;108812;1297;22988;-88
2023/01/24 03:09:33;;;;;;;25.00;22.70;;;;;;;1.91;100.00;99612.05;108824;1296;22184;-87
2023/01/24 03:34:33;;;;;;;22.60;20.60;;;;;;;1.87;100.00;99632.07;108844;1296;23438;-88
2023/01/24 03:37:01;;;;;;;22.20;20.30;;;;;;;1.84;100.00;99633.65;108820;1296;22214;-85
2023/01/24 03:42:15;;;;;;;22.30;20.00;;;;;;;1.82;100.00;99629.11;108817;1296;22675;-86
2023/01/24 03:44:46;;;;;;;20.50;18.50;;;;;;;1.83;100.00;99631.00;108831;1296;22275;-86
2023/01/24 03:47:14;;;;;;;20.80;19.00;;;;;;;1.84;100.00;99633.13;108954;1296;22952;-87
2023/01/24 03:52:29;;;;;;;20.40;18.70;;;;;;;1.81;100.00;99627.52;108832;1296;22204;-86
2023/01/24 03:55:00;;;;;;;20.20;18.30;;;;;;;1.80;100.00;99626.81;108671;1296;23067;-84
2023/01/24 03:57:29;;;;;;;18.60;16.90;;;;;;;1.84;100.00;99622.38;108873;1296;22269;-87
2023/01/24 04:00:00;;;;;;;18.70;17.00;;;;;;;1.87;100.00;99620.09;109112;1296;22267;-86
2023/01/24 04:02:32;;;;;;;18.50;16.80;;;;;;;1.89;100.00;99617.23;108892;1296;22270;-88
2023/01/24 04:05:12;;;;;;;17.10;15.60;;;;;;;1.87;100.00;99616.23;108691;1296;22220;-86
2023/01/24 04:07:42;;;;;;;16.20;14.70;;;;;;;1.85;100.00;99615.45;108829;1296;22274;-87
2023/01/24 04:10:10;;;;;;;16.90;15.30;;;;;;;1.90;100.00;99616.79;108857;1297;22145;-86
2023/01/24 04:12:43;;;;;;;16.90;15.30;;;;;;;1.91;100.00;99614.16;108809;1297;22230;-87
2023/01/24 04:15:26;;;;;;;18.60;17.00;;;;;;;1.92;100.00;99609.39;108421;1297;22941;-86
2023/01/24 04:18:04;;;;;;;18.30;16.60;;;;;;;1.91;100.00;99605.14;108855;1297;22719;-87
2023/01/24 04:20:35;;;;;;;15.80;14.30;;;;;;;1.89;100.00;99609.33;108849;1297;22935;-86
2023/01/24 04:23:06;;;;;;;16.10;14.60;;;;;;;1.88;100.00;99607.64;108698;1297;22239;-86
2023/01/24 04:25:34;;;;;;;17.40;15.80;;;;;;;1.90;100.00;99612.58;108776;1297;23068;-85
2023/01/24 04:28:03;;;;;;;17.90;16.10;;;;;;;1.91;100.00;99612.70;108705;1297;22291;-86
2023/01/24 04:30:33;;;;;;;18.50;16.80;;;;;;;1.91;100.00;99615.64;108686;1297;22261;-87
2023/01/24 04:33:02;;;;;;;20.60;18.60;;;;;;;1.88;100.00;99609.26;108884;1297;22435;-87
2023/01/24 04:35:30;;;;;;;16.30;14.80;;;;;;;1.84;100.00;99607.85;108717;1297;22962;-87
2023/01/24 04:38:01;;;;;;;16.40;14.90;;;;;;;1.88;100.00;99617.39;108817;1297;22151;-86
2023/01/24 04:40:58;;;;;;;15.40;13.90;;;;;;;1.90;100.00;99615.27;108627;1297;22224;-86
2023/01/24 04:43:26;;;;;;;15.40;14.00;;;;;;;1.89;100.00;99616.79;108772;1297;22327;-86
2023/01/24 04:45:58;;;;;;;14.80;13.30;;;;;;;1.89;100.00;99622.62;108725;1297;22151;-84
2023/01/24 04:48:34;;;;;;;15.30;14.00;;;;;;;1.91;100.00;99622.55;108664;1297;22256;-85
2023/01/24 04:51:02;;;;;;;15.80;14.10;;;;;;;1.94;100.00;99626.89;108792;1297;22252;-85
2023/01/24 04:53:33;;;;;;;16.30;14.80;;;;;;;1.95;100.00;99630.75;108790;1297;23008;-85
2023/01/24 04:56:02;;;;;;;16.30;14.80;;;;;;;1.97;100.00;99632.02;108785;1297;23380;-84
2023/01/24 04:58:33;;;;;;;15.80;14.30;;;;;;;1.96;100.00;99634.64;108697;1297;23081;-87
2023/01/24 05:01:02;;;;;;;15.00;13.50;;;;;;;1.94;100.00;99631.68;108720;1297;22227;-86
2023/01/24 05:03:34;;;;;;;14.90;13.60;;;;;;;1.93;100.00;99632.33;108947;1297;22285;-86
2023/01/24 05:06:02;;;;;;;13.90;12.70;;;;;;;1.95;100.00;99634.75;108879;1297;22326;-87
2023/01/24 05:08:31;;;;;;;15.30;13.90;;;;;;;1.96;100.00;99638.48;109040;1297;22144;-85
2023/01/24 05:11:03;;;;;;;16.20;14.30;;;;;;;1.95;100.00;99639.14;109059;1297;22195;-88
2023/01/24 05:13:34;;;;;;;16.80;15.30;;;;;;;1.97;100.00;99641.96;109044;1297;22248;-85
2023/01/24 05:16:03;;;;;;;16.60;15.00;;;;;;;1.96;100.00;99641.34;109106;1297;22233;-87
2023/01/24 05:18:31;;;;;;;14.90;13.40;;;;;;;1.98;100.00;99644.63;108681;1297;22257;-87
2023/01/24 05:21:26;;;;;;;15.60;14.20;;;;;;;1.99;100.00;99640.98;108834;1297;22418;-87
2023/01/24 05:23:54;;;;;;;16.70;15.20;;;;;;;2.00;100.00;99641.98;108685;1297;22162;-86
2023/01/24 05:26:25;;;;;;;17.00;15.40;;;;;;;1.99;100.00;99643.92;108708;1297;22332;-87
2023/01/24 05:28:54;;;;;;;15.20;13.80;;;;;;;1.99;100.00;99647.16;108679;1297;22208;-86
2023/01/24 05:31:23;;;;;;;14.90;13.50;;;;;;;1.94;100.00;99646.61;108792;1297;22918;-86
2023/01/24 05:33:52;;;;;;;14.50;13.00;;;;;;;1.92;100.00;99641.38;108791;1297;22223;-86
2023/01/24 05:36:23;;;;;;;14.90;13.40;;;;;;;1.93;100.00;99647.95;108827;1297;22354;-87
2023/01/24 05:38:51;;;;;;;14.80;13.40;;;;;;;1.94;100.00;99643.38;108829;1297;22231;-87
2023/01/24 05:41:20;;;;;;;14.70;13.30;;;;;;;1.94;100.00;99645.52;108795;1297;22253;-87
2023/01/24 05:43:50;;;;;;;16.00;14.50;;;;;;;1.95;100.00;99651.77;108790;1297;22268;-89
2023/01/24 05:46:22;;;;;;;16.10;14.60;;;;;;;1.94;100.00;99649.77;108672;1297;22918;-86
2023/01/24 05:48:59;;;;;;;14.10;12.70;;;;;;;1.94;100.00;99655.98;108807;1297;22315;-89
2023/01/24 05:51:28;;;;;;;13.10;11.90;;;;;;;1.93;100.00;99653.92;108877;1297;22246;-90
2023/01/24 05:53:56;;;;;;;14.20;12.90;;;;;;;1.94;100.00;99650.58;108800;1297;22269;-86
2023/01/24 05:56:46;;;;;;;15.20;13.80;;;;;;;1.96;100.00;99655.20;108577;1297;22423;-87
2023/01/24 05:59:16;;;;;;;15.70;14.10;;;;;;;1.92;100.00;99657.77;108682;1297;22354;-87
2023/01/24 06:01:44;;;;;;;13.60;12.30;;;;;;;1.90;100.00;99663.89;108865;1297;22269;-86
2023/01/24 06:04:12;;;;;;;14.30;13.00;;;;;;;1.88;100.00;99665.36;108802;1297;22219;-86
2023/01/24 06:06:40;;;;;;;12.80;11.50;;;;;;;1.89;100.00;99664.05;108806;1297;22204;-87
2023/01/24 06:09:12;;;;;;;13.30;12.00;;;;;;;1.92;100.00;99668.04;108738;1297;22227;-87
2023/01/24 06:11:40;;;;;;;30.40;28.00;;;;;;;1.92;100.00;99667.27;108548;1297;22263;-86
2023/01/24 06:14:13;;;;;;;15.60;14.30;;;;;;;1.94;100.00;99667.87;108634;1297;22223;-87
2023/01/24 06:16:44;;;;;;;14.90;13.60;;;;;;;1.94;100.00;99666.17;108552;1297;22243;-86
2023/01/24 06:19:14;;;;;;;13.00;11.50;;;;;;;1.90;100.00;99665.81;108832;1297;22256;-87
2023/01/24 06:21:46;;;;;;;13.40;12.10;;;;;;;1.88;100.00;99666.99;108852;1297;22936;-87
2023/01/24 06:24:26;;;;;;;18.30;16.40;;;;;;;1.90;100.00;99670.57;108557;1297;22675;-88
2023/01/24 06:27:01;;;;;;;20.60;18.80;;;;;;;1.91;100.00;99671.23;108657;1297;22239;-87
2023/01/24 06:29:29;;;;;;;19.60;17.90;;;;;;;1.92;100.00;99677.69;108780;1297;22193;-86
2023/01/24 06:32:48;;;;;;;17.80;16.20;;;;;;;1.89;100.00;99678.82;108797;1297;23012;-88
2023/01/24 06:35:45;;;;;;;17.40;15.80;;;;;;;1.88;100.00;99681.02;108731;1297;22239;-87
2023/01/24 06:38:22;;;;;;;20.70;18.80;;;;;;;1.88;100.00;99685.77;108393;1297;22280;-87
2023/01/24 06:41:00;;;;;;;17.70;16.00;;;;;;;1.88;100.00;99688.11;108692;1297;23106;-84
2023/01/24 06:43:28;;;;;;;18.70;17.00;;;;;;;1.83;100.00;99694.59;109031;1297;22196;-87
2023/01/24 06:45:56;;;;;;;23.70;21.60;;;;;;;1.80;100.00;99699.73;109014;1297;23094;-86
2023/01/24 06:48:24;;;;;;;28.50;25.90;;;;;;;1.81;100.00;99708.15;109075;1297;21952;-87
2023/01/24 06:50:53;;;;;;;15.90;14.30;;;;;;;1.83;100.00;99711.10;109259;1297;21973;-87
2023/01/24 06:53:21;;;;;;;16.00;14.50;;;;;;;1.85;100.00;99714.35;109052;1297;22269;-90
2023/01/24 06:55:49;;;;;;;25.10;22.80;;;;;;;1.85;100.00;99706.36;109354;1297;21970;-92
2023/01/24 06:58:17;;;;;;;19.50;17.60;;;;;;;1.88;100.00;99715.79;109361;1297;22268;-90
2023/01/24 07:00:45;;;;;;;18.50;16.70;;;;;;;1.86;100.00;99713.48;109049;1297;23090;-91
2023/01/24 07:03:14;;;;;;;17.00;15.40;;;;;;;1.87;100.00;99717.13;108756;1297;22226;-92
2023/01/24 07:05:42;;;;;;;19.90;18.00;;;;;;;1.87;100.00;99716.80;108913;1296;22228;-91
2023/01/24 07:08:10;;;;;;;19.70;17.80;;;;;;;1.87;100.00;99716.35;108862;1297;22165;-91
2023/01/24 07:10:38;;;;;;;20.60;18.70;;;;;;;1.88;100.00;99720.89;108868;1297;22272;-91
2023/01/24 07:13:07;;;;;;;23.60;21.40;;;;;;;1.89;100.00;99726.50;108722;1297;22161;-91
2023/01/24 07:15:35;;;;;;;22.00;19.60;;;;;;;1.88;100.00;99728.22;108736;1297;22326;-90
2023/01/24 07:18:07;;;;;;;23.30;21.20;;;;;;;1.84;100.00;99727.91;108718;1297;22137;-89
2023/01/24 07:20:35;;;;;;;20.50;18.60;;;;;;;1.85;100.00;99730.66;108594;1297;22283;-89
2023/01/24 07:23:04;;;;;;;18.40;16.70;;;;;;;1.86;100.00;99726.50;108849;1279;22468;-91
2023/01/24 07:25:33;;;;;;;20.10;18.10;;;;;;;1.84;100.00;99729.59;108863;1297;22255;-89
2023/01/24 07:28:01;;;;;;;19.70;17.90;;;;;;;1.81;100.00;99726.02;108883;1297;22291;-90
2023/01/24 07:30:29;;;;;;;21.60;19.70;;;;;;;1.78;100.00;99727.67;108870;1297;22633;-89
2023/01/24 07:32:57;;;;;;;19.80;17.90;;;;;;;1.78;100.00;99728.54;108865;1297;22279;-89
2023/01/24 07:35:25;;;;;;;20.60;18.60;;;;;;;1.82;100.00;99734.58;108712;1297;22297;-91
2023/01/24 07:37:54;;;;;;;20.60;18.80;;;;;;;1.87;100.00;99733.90;108885;1297;22252;-89
2023/01/24 07:40:22;;;;;;;23.40;21.40;;;;;;;1.90;100.00;99737.95;108872;1297;22352;-90
2023/01/24 07:42:50;;;;;;;22.20;20.10;;;;;;;1.88;100.00;99739.14;108829;1297;22264;-90
2023/01/24 07:45:20;;;;;;;28.10;25.10;;;;;;;1.86;100.00;99742.48;108885;1297;22863;-90
2023/01/24 07:47:48;;;;;;;25.90;23.50;;;;;;;1.85;100.00;99746.68;108876;1297;23146;-91
2023/01/24 07:50:16;;;;;;;29.10;26.10;;;;;;;1.86;100.00;99750.09;108705;1297;22279;-89
2023/01/24 07:52:44;;;;;;;21.80;19.80;;;;;;;1.88;100.00;99747.80;108898;1297;22892;-90
2023/01/24 07:55:12;;;;;;;25.60;23.20;;;;;;;1.91;100.00;99747.42;108873;1297;22230;-85
2023/01/24 07:57:40;;;;;;;22.80;20.70;;;;;;;1.93;100.00;99748.64;108833;1293;22248;-87
2023/01/24 08:00:09;;;;;;;23.60;21.40;;;;;;;1.90;100.00;99747.13;108858;1297;22164;-88
2023/01/24 08:02:44;;;;;;;22.60;20.40;;;;;;;1.90;100.00;99749.29;108998;1297;22992;-91
2023/01/24 08:05:12;;;;;;;27.30;24.80;;;;;;;1.92;100.00;99748.95;108757;1297;22452;-92
2023/01/24 08:07:41;;;;;;;27.40;25.10;;;;;;;1.93;100.00;99752.54;108628;1295;22232;-90
2023/01/24 08:10:09;;;;;;;23.00;21.00;;;;;;;1.94;100.00;99751.52;108561;1290;22427;-85
2023/01/24 08:12:37;;;;;;;20.00;18.30;;;;;;;1.94;100.00;99753.09;108812;1292;22871;-90
2023/01/24 08:15:06;;;;;;;20.50;18.60;;;;;;;1.95;100.00;99752.79;108651;1297;22915;-91
2023/01/24 08:17:39;;;;;;;18.80;17.10;;;;;;;1.95;100.00;99761.88;108696;1297;22197;-88
2023/01/24 08:20:09;;;;;;;19.40;17.50;;;;;;;1.97;100.00;99763.67;108887;1297;22866;-90
2023/01/24 08:22:39;;;;;;;20.50;18.70;;;;;;;2.01;100.00;99762.55;109029;1297;22214;-87
2023/01/24 08:25:25;;;;;;;22.70;20.50;;;;;;;2.04;100.00;99758.57;108868;1295;22147;-90
2023/01/24 08:27:54;;;;;;;22.10;20.10;;;;;;;2.04;100.00;99764.38;108767;1297;22310;-85
2023/01/24 08:30:22;;;;;;;20.00;18.10;;;;;;;2.06;100.00;99767.23;108782;1290;22229;-90
2023/01/24 08:33:02;;;;;;;19.60;17.70;;;;;;;2.10;100.00;99768.70;108784;1297;22679;-90
2023/01/24 08:35:31;;;;;;;20.60;18.70;;;;;;;2.15;100.00;99772.16;108862;1297;22169;-91
2023/01/24 08:37:59;;;;;;;19.70;17.90;;;;;;;2.15;100.00;99773.79;108794;1297;22250;-90
2023/01/24 08:40:27;;;;;;;19.40;17.70;;;;;;;2.13;100.00;99770.63;108849;1297;22387;-89
2023/01/24 08:43:02;;;;;;;21.30;19.40;;;;;;;2.12;100.00;99770.58;108855;1297;22305;-89
2023/01/24 08:45:30;;;;;;;20.10;18.30;;;;;;;2.11;100.00;99770.17;108862;1297;22398;-90
2023/01/24 08:47:59;;;;;;;22.90;20.90;;;;;;;2.12;100.00;99770.14;108865;1297;22318;-90
2023/01/24 08:50:27;;;;;;;21.70;19.60;;;;;;;2.11;100.00;99768.98;108831;1297;22913;-91
2023/01/24 08:52:56;;;;;;;23.30;21.10;;;;;;;2.08;100.00;99770.58;108969;1296;22230;-89
2023/01/24 08:55:24;;;;;;;22.30;20.20;;;;;;;2.07;100.00;99773.79;108952;1296;22259;-91
2023/01/24 08:57:58;;;;;;;24.30;22.00;;;;;;;2.08;100.00;99775.23;108958;1296;22131;-90
2023/01/24 09:00:26;;;;;;;23.10;20.90;;;;;;;2.10;100.00;99772.95;108990;1296;22222;-90
2023/01/24 09:02:58;;;;;;;22.80;20.70;;;;;;;2.11;100.00;99771.77;108931;1296;22156;-91
2023/01/24 09:05:27;;;;;;;23.50;21.30;;;;;;;2.08;100.00;99777.11;108948;1296;22219;-89
2023/01/24 09:07:55;;;;;;;20.70;18.70;;;;;;;2.11;100.00;99777.33;108831;1297;22196;-89
2023/01/24 09:10:23;;;;;;;21.80;19.70;;;;;;;2.14;100.00;99775.42;108858;1297;22233;-91
2023/01/24 09:12:52;;;;;;;21.70;19.80;;;;;;;2.15;100.00;99777.23;108780;1297;22236;-90
2023/01/24 09:15:20;;;;;;;22.80;20.80;;;;;;;2.17;100.00;99777.52;108649;1295;22218;-91
2023/01/24 09:17:49;;;;;;;25.80;23.60;;;;;;;2.15;100.00;99780.91;108938;1297;22249;-88
2023/01/24 09:20:18;;;;;;;23.50;21.30;;;;;;;2.12;100.00;99788.63;108883;1297;22222;-86
2023/01/24 09:22:46;;;;;;;26.60;24.20;;;;;;;2.13;100.00;99784.84;108922;1297;23043;-87
2023/01/24 09:25:14;;;;;;;24.00;21.70;;;;;;;2.15;100.00;99782.68;108717;1288;22340;-87
2023/01/24 09:27:42;;;;;;;24.00;21.90;;;;;;;2.18;100.00;99780.52;108877;1297;22213;-89
2023/01/24 09:30:11;;;;;;;24.30;22.10;;;;;;;2.20;100.00;99775.12;108897;1297;22229;-88
2023/01/24 09:32:39;;;;;;;21.70;19.70;;;;;;;2.20;100.00;99776.06;108704;1297;22157;-88
2023/01/24 09:35:07;;;;;;;22.70;20.70;;;;;;;2.19;100.00;99776.39;108878;1290;22217;-88
2023/01/24 09:37:35;;;;;;;23.40;21.20;;;;;;;2.23;100.00;99780.83;108866;1297;22142;-87
2023/01/24 09:40:03;;;;;;;23.50;21.30;;;;;;;2.30;100.00;99777.01;108873;1297;22140;-87
2023/01/24 09:42:39;;;;;;;24.10;22.00;;;;;;;2.35;100.00;99777.23;108656;1297;22277;-85
2023/01/24 09:45:12;;;;;;;23.20;21.10;;;;;;;2.37;100.00;99778.95;108844;1297;23172;-86
2023/01/24 09:47:50;;;;;;;23.20;21.00;;;;;;;2.38;100.00;99782.19;108867;1297;22269;-86
2023/01/24 09:50:27;;;;;;;21.30;19.40;;;;;;;2.40;100.00;99778.55;108693;1297;22924;-87
2023/01/24 09:52:57;;;;;;;18.30;16.60;;;;;;;2.46;100.00;99775.95;108677;1297;22218;-87
2023/01/24 09:55:31;;;;;;;31.10;28.20;;;;;;;2.49;100.00;99776.22;108419;1297;22853;-87
2023/01/24 09:58:06;;;;;;;24.50;22.40;;;;;;;2.50;100.00;99774.14;108561;1292;22191;-87
2023/01/24 10:00:38;;;;;;;20.20;18.40;;;;;;;2.50;100.00;99770.24;108843;1297;22257;-85
2023/01/24 10:03:19;;;;;;;19.80;18.10;;;;;;;2.51;100.00;99773.04;108608;1297;22217;-88
2023/01/24 10:05:50;;;;;;;17.90;16.20;;;;;;;2.50;100.00;99772.13;108650;1297;22248;-86
2023/01/24 10:08:57;;;;;;;19.50;17.80;;;;;;;2.50;100.00;99768.73;108861;1297;22967;-86
2023/01/24 10:11:53;;;;;;;19.30;17.40;;;;;;;2.53;100.00;99766.41;108695;1297;22244;-86
2023/01/24 10:14:42;;;;;;;23.90;21.80;;;;;;;2.52;100.00;99768.61;108901;1297;22298;-86
2023/01/24 10:17:35;;;;;;;22.60;20.40;;;;;;;2.51;100.00;99770.82;108858;1297;22199;-86
2023/01/24 10:20:24;;;;;;;20.90;19.10;;;;;;;2.48;100.00;99767.45;108853;1297;22212;-86
2023/01/24 10:23:20;;;;;;;24.50;22.40;;;;;;;2.50;100.00;99770.23;108814;1297;22255;-85
2023/01/24 10:26:13;;;;;;;20.50;18.70;;;;;;;2.57;100.00;99771.37;108841;1297;22247;-86
2023/01/24 10:28:48;;;;;;;19.30;17.50;;;;;;;2.58;100.00;99767.81;108767;1297;22288;-85
2023/01/24 10:31:47;;;;;;;20.00;18.20;;;;;;;2.56;100.00;99768.17;108830;1273;22169;-85
2023/01/24 10:34:34;;;;;;;21.90;19.80;;;;;;;2.54;100.00;99766.61;108169;1288;22357;-85
2023/01/24 10:37:13;;;;;;;23.30;21.20;;;;;;;2.51;100.00;99769.27;108005;1303;23035;-85
2023/01/24 10:39:41;;;;;;;21.70;19.70;;;;;;;2.49;100.00;99766.72;108186;1301;22337;-85
2023/01/24 10:42:22;;;;;;;22.80;20.60;;;;;;;2.44;100.00;99763.98;108015;1303;22274;-84
2023/01/24 10:44:53;;;;;;;20.70;18.70;;;;;;;2.38;100.00;99767.46;108206;1303;22423;-84
2023/01/24 10:47:46;;;;;;;18.70;17.00;;;;;;;2.33;100.00;99764.33;107932;1303;22341;-84
2023/01/24 10:50:17;;;;;;;19.30;17.60;;;;;;;2.32;100.00;99762.43;108232;1303;22403;-83
2023/01/24 10:52:48;;;;;;;19.90;18.10;;;;;;;2.28;100.00;99764.05;108053;1303;23014;-84
2023/01/24 10:55:36;;;;;;;21.80;19.80;;;;;;;2.26;100.00;99760.91;108191;1303;22433;-83
2023/01/24 10:58:23;;;;;;;23.00;21.00;;;;;;;2.27;100.00;99763.48;108192;1303;22934;-85
2023/01/24 11:01:00;;;;;;;21.40;19.50;;;;;;;2.29;100.00;99757.77;108184;1303;22226;-83
2023/01/24 11:03:30;;;;;;;20.30;18.50;;;;;;;2.32;100.00;99753.93;108173;1303;22822;-85
2023/01/24 11:05:58;;;;;;;22.10;20.20;;;;;;;2.32;100.00;99752.20;108221;1298;22353;-83
2023/01/24 11:08:35;;;;;;;23.30;21.20;;;;;;;2.35;100.00;99749.73;108241;1303;22254;-84
2023/01/24 11:11:24;;;;;;;22.60;20.50;;;;;;;2.34;100.00;99745.84;108105;1291;22392;-84
2023/01/24 11:13:55;;;;;;;22.50;20.40;;;;;;;2.28;100.00;99742.58;108669;1297;22847;-83
2023/01/24 11:16:47;;;;;;;28.70;26.10;;;;;;;2.30;100.00;99739.73;108832;1297;22994;-83
2023/01/24 11:19:36;;;;;;;29.60;27.00;;;;;;;2.35;100.00;99734.13;108840;1297;22302;-84
2023/01/24 11:22:25;;;;;;;26.90;24.40;;;;;;;2.39;100.00;99728.83;108794;1297;22201;-84
2023/01/24 11:24:59;;;;;;;25.80;23.30;;;;;;;2.41;100.00;99723.72;108654;1297;23078;-84
2023/01/24 11:27:28;;;;;;;25.10;22.90;;;;;;;2.42;100.00;99724.62;108841;1297;22233;-84
2023/01/24 11:30:22;;;;;;;26.20;23.80;;;;;;;2.45;100.00;99722.70;108827;1297;23402;-84
2023/01/24 11:33:05;;;;;;;22.90;20.90;;;;;;;2.51;100.00;99718.80;108790;1297;22235;-84
2023/01/24 11:35:36;;;;;;;21.70;19.70;;;;;;;2.53;100.00;99717.94;108706;1297;159766;-84
2023/01/24 11:38:40;;;;;;;21.00;19.10;;;;;;;2.52;100.00;99715.34;108784;1284;22305;-84
2023/01/24 11:41:15;;;;;;;23.50;21.50;;;;;;;2.47;100.00;99715.86;108663;1297;22331;-83
2023/01/24 11:44:20;;;;;;;19.80;18.00;;;;;;;2.44;100.00;99716.47;108860;1294;22260;-84
2023/01/24 11:47:04;;;;;;;18.00;16.40;;;;;;;2.43;100.00;99709.42;108865;1297;22233;-84
2023/01/24 11:49:49;;;;;;;18.90;17.20;;;;;;;2.48;100.00;99705.44;108833;1285;22273;-83
2023/01/24 11:52:45;;;;;;;17.90;16.20;;;;;;;2.48;100.00;99704.13;108900;1296;22280;-83
2023/01/24 11:55:22;;;;;;;18.70;17.00;;;;;;;2.42;100.00;99698.66;108807;1296;23137;-83
2023/01/24 11:58:34;;;;;;;18.40;16.70;;;;;;;2.40;100.00;99700.66;109016;1296;22336;-81
2023/01/24 12:01:17;;;;;;;17.80;16.20;;;;;;;2.45;100.00;99699.98;109187;1296;23002;-83
2023/01/24 12:04:02;;;;;;;19.00;17.20;;;;;;;2.50;100.00;99701.96;109076;1296;22884;-84
2023/01/24 12:06:36;;;;;;;15.10;13.60;;;;;;;2.55;100.00;99701.15;109010;1297;22205;-84
2023/01/24 12:09:11;;;;;;;16.00;14.50;;;;;;;2.54;100.00;99694.97;109163;1297;22251;-85
2023/01/24 12:11:52;;;;;;;16.30;14.80;;;;;;;2.54;100.00;99693.86;109148;1297;22392;-82
2023/01/24 12:14:35;;;;;;;14.20;12.90;;;;;;;2.54;100.00;99694.88;109113;1295;22369;-82
2023/01/24 12:17:36;;;;;;;15.20;13.60;;;;;;;2.54;100.00;99690.83;108913;1297;22174;-83